createdAt,value
2023-01-06T00:00:22.394Z,13.50
2023-01-06T00:02:53.445Z,13.50
2023-01-06T00:05:24.354Z,13.50
2023-01-06T00:07:53.702Z,13.50
2023-01-06T00:10:23.128Z,13.50
2023-01-06T00:12:51.679Z,13.50
2023-01-06T00:15:23.407Z,13.50
2023-01-06T00:17:53.655Z,13.50
2023-01-06T00:20:24.490Z,13.40
2023-01-06T00:22:55.487Z,13.50
2023-01-06T00:25:24.747Z,13.40
2023-01-06T00:27:56.662Z,13.40
2023-01-06T00:30:27.416Z,13.40
2023-01-06T00:32:55.605Z,13.40
2023-01-06T00:35:24.787Z,13.40
2023-01-06T00:37:53.092Z,13.40
2023-01-06T00:40:23.410Z,13.40
2023-01-06T00:42:53.243Z,13.50
2023-01-06T00:45:24.924Z,13.40
2023-01-06T00:47:54.459Z,13.40
2023-01-06T00:50:23.143Z,13.40
2023-01-06T00:52:51.595Z,13.50
2023-01-06T00:55:21.875Z,13.40
2023-01-06T00:57:53.635Z,13.40
2023-01-06T01:00:23.049Z,13.50
2023-01-06T01:02:51.533Z,13.50
2023-01-06T01:05:22.013Z,13.50
2023-01-06T01:07:50.352Z,13.50
2023-01-06T01:10:19.175Z,13.40
2023-01-06T01:12:48.920Z,13.50
2023-01-06T01:15:19.537Z,13.50
2023-01-06T01:17:48.377Z,13.50
2023-01-06T01:20:22.782Z,13.60
2023-01-06T01:22:51.997Z,13.50
2023-01-06T01:25:20.564Z,13.50
2023-01-06T01:27:48.769Z,13.50
2023-01-06T01:30:17.396Z,13.70
2023-01-06T01:32:45.880Z,13.50
2023-01-06T01:35:17.015Z,13.40
2023-01-06T01:37:47.094Z,13.40
2023-01-06T01:40:16.965Z,13.50
2023-01-06T01:42:46.956Z,13.50
2023-01-06T01:45:26.468Z,13.40
2023-01-06T01:48:01.001Z,13.50
2023-01-06T01:50:33.821Z,13.50
2023-01-06T01:53:08.781Z,13.40
2023-01-06T01:55:39.097Z,13.40
2023-01-06T01:58:10.925Z,13.50
2023-01-06T02:00:41.312Z,13.70
2023-01-06T02:03:10.831Z,13.40
2023-01-06T02:05:42.319Z,13.40
2023-01-06T02:08:30.115Z,13.50
2023-01-06T02:10:58.519Z,13.50
2023-01-06T02:13:27.576Z,13.50
2023-01-06T02:16:03.189Z,13.50
2023-01-06T02:18:46.112Z,13.40
2023-01-06T02:21:22.415Z,13.40
2023-01-06T02:24:38.674Z,13.50
2023-01-06T02:27:44.421Z,13.50
2023-01-06T02:30:39.309Z,13.40
2023-01-06T02:33:18.707Z,13.40
2023-01-06T02:36:00.124Z,13.40
2023-01-06T02:38:45.223Z,13.40
2023-01-06T02:41:26.429Z,13.40
2023-01-06T02:44:03.149Z,13.40
2023-01-06T02:47:00.652Z,13.40
2023-01-06T02:49:37.764Z,13.40
2023-01-06T02:52:14.497Z,13.40
2023-01-06T02:54:54.173Z,13.40
2023-01-06T02:57:28.283Z,13.40
2023-01-06T03:00:07.813Z,13.40
2023-01-06T03:02:47.493Z,13.40
2023-01-06T03:05:26.751Z,13.40
2023-01-06T03:07:57.884Z,13.40
2023-01-06T03:10:32.584Z,13.40
2023-01-06T03:13:08.460Z,13.40
2023-01-06T03:15:38.404Z,13.40
2023-01-06T03:18:07.808Z,13.40
2023-01-06T03:20:38.564Z,13.40
2023-01-06T03:23:07.554Z,13.40
2023-01-06T03:25:39.322Z,13.40
2023-01-06T03:28:08.357Z,13.40
2023-01-06T03:30:45.023Z,13.40
2023-01-06T03:33:22.952Z,13.40
2023-01-06T03:36:03.407Z,13.40
2023-01-06T03:38:42.607Z,13.40
2023-01-06T03:41:23.496Z,13.40
2023-01-06T03:44:00.176Z,13.40
2023-01-06T03:46:35.856Z,13.40
2023-01-06T03:49:09.251Z,13.40
2023-01-06T03:51:49.065Z,13.40
2023-01-06T03:54:28.097Z,13.40
2023-01-06T03:57:07.969Z,13.40
2023-01-06T03:59:39.761Z,13.40
2023-01-06T04:02:10.343Z,13.40
2023-01-06T04:04:38.906Z,13.50
2023-01-06T04:07:08.932Z,13.40
2023-01-06T04:09:41.008Z,13.40
2023-01-06T04:12:27.455Z,13.40
2023-01-06T04:14:55.707Z,13.50
2023-01-06T04:17:23.933Z,13.40
2023-01-06T04:19:52.966Z,13.50
2023-01-06T04:22:23.448Z,13.40
2023-01-06T04:24:51.750Z,13.50
2023-01-06T04:27:22.862Z,13.40
2023-01-06T04:29:52.301Z,13.50
2023-01-06T04:32:20.649Z,13.40
2023-01-06T04:34:51.766Z,13.40
2023-01-06T04:37:21.462Z,13.40
2023-01-06T04:39:51.083Z,13.40
2023-01-06T04:42:19.670Z,13.40
2023-01-06T04:44:47.872Z,13.40
2023-01-06T04:47:16.029Z,13.40
2023-01-06T04:49:44.271Z,13.40
2023-01-06T04:52:12.468Z,13.70
2023-01-06T04:54:40.674Z,13.40
2023-01-06T04:57:10.385Z,13.40
2023-01-06T04:59:46.945Z,13.40
2023-01-06T05:02:21.700Z,13.40
2023-01-06T05:04:50.267Z,13.40
2023-01-06T05:07:22.720Z,13.40
2023-01-06T05:10:22.258Z,13.40
2023-01-06T05:12:59.061Z,13.40
2023-01-06T05:15:46.025Z,13.40
2023-01-06T05:18:18.054Z,13.40
2023-01-06T05:20:50.229Z,13.40
2023-01-06T05:23:20.869Z,13.40
2023-01-06T05:25:51.717Z,13.40
2023-01-06T05:28:21.964Z,13.40
2023-01-06T05:30:53.518Z,13.30
2023-01-06T05:33:21.740Z,13.40
2023-01-06T05:35:49.967Z,13.40
2023-01-06T05:38:18.172Z,13.30
2023-01-06T05:40:46.307Z,13.40
2023-01-06T05:43:14.453Z,13.30
2023-01-06T05:45:44.079Z,13.30
2023-01-06T05:48:12.492Z,13.30
2023-01-06T05:50:40.766Z,13.30
2023-01-06T05:53:09.557Z,13.40
2023-01-06T05:55:38.068Z,13.30
2023-01-06T05:58:06.425Z,13.40
2023-01-06T06:00:35.224Z,13.30
2023-01-06T06:03:05.550Z,13.30
2023-01-06T06:05:33.864Z,13.30
2023-01-06T06:08:02.014Z,13.30
2023-01-06T06:10:30.227Z,13.30
2023-01-06T06:12:58.492Z,13.40
2023-01-06T06:15:26.668Z,13.30
2023-01-06T06:17:54.944Z,13.40
2023-01-06T06:20:25.137Z,13.30
2023-01-06T06:22:53.908Z,13.40
2023-01-06T06:25:24.882Z,13.40
2023-01-06T06:27:53.349Z,13.30
2023-01-06T06:30:22.149Z,13.30
2023-01-06T06:32:50.314Z,13.30
2023-01-06T06:35:19.985Z,13.30
2023-01-06T06:37:51.999Z,13.30
2023-01-06T06:40:24.622Z,13.30
2023-01-06T06:42:54.567Z,13.30
2023-01-06T06:45:29.072Z,13.30
2023-01-06T06:47:58.144Z,13.30
2023-01-06T06:50:31.584Z,13.30
2023-01-06T06:53:03.044Z,13.30
2023-01-06T06:55:36.374Z,13.30
2023-01-06T06:58:05.731Z,13.30
2023-01-06T07:00:37.827Z,13.30
2023-01-06T07:03:10.198Z,13.30
2023-01-06T07:05:42.937Z,13.30
2023-01-06T07:08:13.863Z,13.30
2023-01-06T07:10:47.517Z,13.30
2023-01-06T07:13:20.517Z,13.30
2023-01-06T07:15:53.333Z,13.30
2023-01-06T07:18:22.219Z,13.30
2023-01-06T07:20:54.246Z,13.30
2023-01-06T07:23:25.527Z,13.30
2023-01-06T07:25:54.645Z,13.40
2023-01-06T07:28:24.918Z,13.40
2023-01-06T07:30:59.246Z,13.30
2023-01-06T07:33:30.639Z,13.30
2023-01-06T07:35:59.303Z,13.30
2023-01-06T07:38:30.528Z,13.30
2023-01-06T07:41:08.252Z,13.30
2023-01-06T07:43:40.974Z,13.30
2023-01-06T07:46:10.452Z,13.30
2023-01-06T07:48:43.232Z,13.30
2023-01-06T07:51:17.802Z,13.30
2023-01-06T07:53:50.845Z,13.30
2023-01-06T07:56:20.491Z,13.30
2023-01-06T07:58:49.407Z,13.30
2023-01-06T08:01:23.356Z,13.30
2023-01-06T08:03:52.796Z,13.30
2023-01-06T08:06:22.057Z,13.30
2023-01-06T08:08:52.462Z,13.30
2023-01-06T08:11:21.870Z,13.30
2023-01-06T08:13:50.510Z,13.30
2023-01-06T08:16:24.168Z,13.30
2023-01-06T08:18:53.606Z,13.30
2023-01-06T08:21:25.740Z,13.30
2023-01-06T08:23:56.387Z,13.30
2023-01-06T08:26:25.654Z,13.30
2023-01-06T08:28:55.400Z,13.20
2023-01-06T08:31:25.121Z,13.30
2023-01-06T08:33:54.084Z,13.30
2023-01-06T08:36:24.680Z,13.20
2023-01-06T08:38:55.429Z,13.20
2023-01-06T08:41:26.037Z,13.30
2023-01-06T08:43:56.183Z,13.30
2023-01-06T08:46:26.760Z,13.20
2023-01-06T08:48:58.056Z,13.20
2023-01-06T08:51:42.075Z,13.30
2023-01-06T08:54:14.770Z,13.20
2023-01-06T08:56:44.950Z,13.30
2023-01-06T08:59:19.423Z,13.20
2023-01-06T09:01:54.517Z,13.20
2023-01-06T09:04:28.432Z,13.30
2023-01-06T09:06:57.951Z,13.20
2023-01-06T09:09:30.738Z,13.30
2023-01-06T09:12:06.781Z,13.30
2023-01-06T09:14:37.033Z,13.30
2023-01-06T09:17:11.976Z,13.30
2023-01-06T09:19:42.191Z,13.30
2023-01-06T09:22:16.843Z,13.20
2023-01-06T09:24:49.276Z,13.20
2023-01-06T09:27:19.480Z,13.20
2023-01-06T09:29:49.296Z,13.20
2023-01-06T09:32:23.708Z,13.20
2023-01-06T09:34:54.925Z,13.20
2023-01-06T09:37:24.697Z,13.30
2023-01-06T09:39:54.896Z,13.20
2023-01-06T09:42:42.207Z,13.20
2023-01-06T09:45:18.549Z,13.20
2023-01-06T09:47:55.824Z,13.20
2023-01-06T09:50:41.419Z,13.20
2023-01-06T09:53:19.157Z,13.20
2023-01-06T09:56:04.171Z,13.20
2023-01-06T09:58:43.966Z,13.20
2023-01-06T10:01:21.733Z,13.20
2023-01-06T10:03:54.589Z,13.20
2023-01-06T10:06:35.909Z,13.20
2023-01-06T10:09:20.092Z,13.20
2023-01-06T10:12:07.647Z,13.20
2023-01-06T10:14:49.273Z,13.20
2023-01-06T10:17:42.079Z,13.20
2023-01-06T10:20:43.491Z,13.20
2023-01-06T10:23:38.258Z,13.20
2023-01-06T10:26:16.041Z,13.20
2023-01-06T10:28:53.387Z,13.20
2023-01-06T10:31:28.110Z,13.20
2023-01-06T10:33:59.979Z,13.30
2023-01-06T10:36:34.944Z,13.30
2023-01-06T10:39:10.554Z,12.90
2023-01-06T10:41:52.246Z,13.20
2023-01-06T10:44:26.145Z,13.20
2023-01-06T10:46:58.659Z,13.30
2023-01-06T10:49:34.297Z,13.30
2023-01-06T10:52:15.309Z,13.30
2023-01-06T10:54:51.973Z,13.30
2023-01-06T10:57:30.230Z,13.30
2023-01-06T11:00:21.370Z,13.30
2023-01-06T11:03:32.465Z,13.30
2023-01-06T11:06:16.615Z,13.30
2023-01-06T11:08:47.925Z,13.30
2023-01-06T11:11:31.969Z,13.40
2023-01-06T11:14:10.893Z,13.40
2023-01-06T11:16:54.456Z,13.30
2023-01-06T11:19:39.181Z,13.40
2023-01-06T11:22:39.988Z,13.40
2023-01-06T11:25:42.538Z,13.40
2023-01-06T11:28:25.737Z,13.40
2023-01-06T11:31:14.362Z,13.40
2023-01-06T11:33:54.666Z,13.30
2023-01-06T11:36:28.046Z,13.40
2023-01-06T11:39:01.795Z,13.40
2023-01-06T11:41:44.256Z,13.40
2023-01-06T11:44:20.586Z,13.40
2023-01-06T11:46:58.247Z,13.50
2023-01-06T11:49:44.034Z,13.50
2023-01-06T11:52:29.277Z,13.50
2023-01-06T11:55:04.897Z,13.50
2023-01-06T11:57:47.328Z,13.50
2023-01-06T12:00:47.329Z,13.50
2023-01-06T12:03:27.505Z,13.50
2023-01-06T12:06:13.434Z,13.50
2023-01-06T12:08:51.557Z,13.50
2023-01-06T12:11:30.210Z,13.50
2023-01-06T12:14:13.461Z,13.50
2023-01-06T12:17:13.234Z,13.60
2023-01-06T12:19:48.567Z,13.60
2023-01-06T12:22:25.569Z,13.60
2023-01-06T12:24:56.793Z,13.60
2023-01-06T12:27:32.959Z,13.60
2023-01-06T12:30:10.129Z,13.60
2023-01-06T12:32:41.666Z,13.60
2023-01-06T12:35:15.811Z,13.60
2023-01-06T12:37:51.225Z,13.60
2023-01-06T12:40:29.873Z,13.60
2023-01-06T12:43:06.444Z,13.60
2023-01-06T12:45:43.492Z,13.60
2023-01-06T12:48:20.498Z,13.60
2023-01-06T12:50:53.870Z,13.60
2023-01-06T12:53:27.771Z,13.60
2023-01-06T12:56:11.564Z,13.60
2023-01-06T12:58:48.554Z,13.60
2023-01-06T13:01:21.775Z,13.60
2023-01-06T13:04:41.387Z,13.60
2023-01-06T13:07:18.561Z,13.60
2023-01-06T13:10:02.091Z,13.60
2023-01-06T13:12:48.605Z,13.60
2023-01-06T13:15:24.708Z,13.60
2023-01-06T13:18:01.375Z,13.60
2023-01-06T13:20:38.355Z,13.60
2023-01-06T13:23:27.169Z,13.60
2023-01-06T13:26:18.507Z,13.60
2023-01-06T13:28:54.845Z,13.60
2023-01-06T13:31:54.785Z,13.60
2023-01-06T13:34:53.840Z,13.60
2023-01-06T13:37:37.961Z,13.60
2023-01-06T13:40:13.289Z,13.60
2023-01-06T13:42:48.237Z,13.70
2023-01-06T13:45:23.890Z,13.70
2023-01-06T13:47:53.061Z,13.60
2023-01-06T13:50:24.679Z,13.70
2023-01-06T13:52:54.763Z,13.70
2023-01-06T13:55:36.579Z,13.70
2023-01-06T13:58:37.689Z,13.70
2023-01-06T14:01:09.319Z,13.70
2023-01-06T14:03:42.009Z,13.60
2023-01-06T14:06:13.199Z,13.60
2023-01-06T14:08:50.853Z,13.60
2023-01-06T14:11:30.888Z,13.60
2023-01-06T14:14:03.203Z,13.60
2023-01-06T14:16:44.318Z,13.60
2023-01-06T14:19:19.469Z,13.60
2023-01-06T14:21:49.131Z,13.70
2023-01-06T14:24:26.682Z,13.60
2023-01-06T14:26:58.494Z,13.70
2023-01-06T14:30:01.747Z,13.60
2023-01-06T14:33:03.061Z,13.70
2023-01-06T14:35:36.687Z,13.70
2023-01-06T14:38:07.751Z,13.70
2023-01-06T14:40:41.759Z,13.60
2023-01-06T14:43:34.520Z,13.70
2023-01-06T14:46:10.945Z,13.60
2023-01-06T14:48:46.061Z,13.70
2023-01-06T14:51:20.035Z,13.70
2023-01-06T14:53:54.638Z,13.70
2023-01-06T14:56:25.942Z,13.60
2023-01-06T14:59:05.095Z,13.70
2023-01-06T15:01:52.719Z,13.70
2023-01-06T15:04:27.170Z,13.70
2023-01-06T15:07:17.423Z,13.60
2023-01-06T15:09:48.526Z,13.70
2023-01-06T15:12:26.995Z,13.70
2023-01-06T15:14:57.833Z,13.60
2023-01-06T15:17:27.885Z,13.70
2023-01-06T15:19:56.799Z,13.70
2023-01-06T15:22:28.299Z,13.70
2023-01-06T15:24:57.191Z,13.70
2023-01-06T15:27:26.124Z,13.70
2023-01-06T15:29:58.284Z,13.70
2023-01-06T15:32:30.485Z,13.70
2023-01-06T15:35:02.774Z,13.60
2023-01-06T15:37:35.175Z,13.70
2023-01-06T15:40:07.289Z,13.30
2023-01-06T15:42:37.159Z,13.70
2023-01-06T15:45:27.289Z,13.70
2023-01-06T15:47:59.865Z,13.60
2023-01-06T15:50:35.421Z,13.60
2023-01-06T15:53:06.909Z,13.60
2023-01-06T15:55:43.699Z,13.60
2023-01-06T15:58:24.476Z,13.70
2023-01-06T16:01:04.775Z,13.60
2023-01-06T16:03:40.741Z,13.60
2023-01-06T16:06:12.281Z,13.60
2023-01-06T16:08:45.486Z,13.60
2023-01-06T16:11:47.991Z,13.60
2023-01-06T16:14:35.751Z,13.60
2023-01-06T16:17:10.723Z,13.60
2023-01-06T16:19:48.735Z,13.60
2023-01-06T16:22:36.309Z,13.60
2023-01-06T16:25:09.530Z,13.50
2023-01-06T16:27:38.985Z,13.60
2023-01-06T16:30:27.077Z,13.50
2023-01-06T16:33:00.627Z,13.60
2023-01-06T16:35:37.169Z,13.50
2023-01-06T16:38:09.634Z,13.50
2023-01-06T16:40:40.410Z,13.50
2023-01-06T16:43:14.705Z,13.60
2023-01-06T16:45:48.476Z,13.50
2023-01-06T16:48:21.318Z,13.60
2023-01-06T16:50:58.783Z,13.60
2023-01-06T16:53:34.029Z,13.60
2023-01-06T16:56:15.707Z,13.50
2023-01-06T16:58:44.534Z,13.50
2023-01-06T17:01:16.799Z,13.50
2023-01-06T17:03:48.124Z,13.50
2023-01-06T17:06:22.008Z,13.50
2023-01-06T17:08:51.817Z,13.50
2023-01-06T17:11:23.000Z,13.50
2023-01-06T17:13:55.341Z,13.50
2023-01-06T17:16:29.909Z,13.50
2023-01-06T17:19:07.339Z,13.50
2023-01-06T17:21:41.313Z,13.50
2023-01-06T17:24:13.681Z,13.50
2023-01-06T17:26:44.989Z,13.50
2023-01-06T17:29:17.097Z,13.50
2023-01-06T17:31:47.951Z,13.50
2023-01-06T17:34:18.424Z,13.50
2023-01-06T17:36:50.176Z,13.50
2023-01-06T17:39:24.230Z,13.50
2023-01-06T17:42:01.714Z,13.50
2023-01-06T17:44:36.154Z,13.50
2023-01-06T17:47:12.234Z,13.50
2023-01-06T17:49:40.488Z,13.50
2023-01-06T17:52:19.120Z,13.50
2023-01-06T17:55:13.465Z,13.50
2023-01-06T17:57:46.233Z,13.50
2023-01-06T18:00:24.830Z,13.50
2023-01-06T18:02:57.140Z,13.50
2023-01-06T18:05:56.860Z,13.50
2023-01-06T18:08:27.884Z,13.50
2023-01-06T18:10:59.999Z,13.50
2023-01-06T18:13:35.772Z,13.50
2023-01-06T18:16:09.743Z,13.50
2023-01-06T18:18:39.776Z,13.50
2023-01-06T18:21:26.485Z,13.50
2023-01-06T18:23:56.627Z,13.50
2023-01-06T18:26:36.878Z,13.50
2023-01-06T18:29:15.289Z,13.50
2023-01-06T18:31:44.612Z,13.50
2023-01-06T18:34:29.185Z,13.50
2023-01-06T18:36:59.044Z,13.50
2023-01-06T18:39:36.297Z,13.50
2023-01-06T18:42:26.468Z,13.50
2023-01-06T18:45:18.258Z,13.50
2023-01-06T18:47:51.732Z,13.50
2023-01-06T18:50:37.171Z,13.50
2023-01-06T18:53:19.624Z,13.50
2023-01-06T18:55:51.324Z,13.50
2023-01-06T18:58:34.077Z,13.50
2023-01-06T19:01:05.451Z,13.50
2023-01-06T19:03:38.856Z,13.50
2023-01-06T19:06:32.671Z,13.50
2023-01-06T19:09:02.682Z,13.50
2023-01-06T19:11:35.194Z,13.50
2023-01-06T19:14:09.304Z,13.50
2023-01-06T19:16:42.129Z,13.50
2023-01-06T19:19:33.534Z,13.60
2023-01-06T19:22:14.468Z,13.50
2023-01-06T19:24:52.249Z,13.50
2023-01-06T19:27:40.678Z,13.50
2023-01-06T19:30:44.637Z,13.50
2023-01-06T19:33:40.822Z,13.50
2023-01-06T19:36:43.297Z,13.50
2023-01-06T19:39:31.546Z,13.50
2023-01-06T19:42:10.750Z,13.50
2023-01-06T19:44:40.590Z,13.50
2023-01-06T19:47:19.233Z,13.50
2023-01-06T19:49:53.223Z,13.50
2023-01-06T19:52:29.631Z,13.50
2023-01-06T19:55:15.345Z,13.50
2023-01-06T19:57:48.122Z,13.50
2023-01-06T20:00:27.670Z,13.50
2023-01-06T20:03:01.973Z,13.50
2023-01-06T20:05:32.367Z,13.50
2023-01-06T20:08:05.303Z,13.70
2023-01-06T20:10:33.739Z,13.50
2023-01-06T20:13:02.598Z,13.50
2023-01-06T20:15:33.278Z,13.50
2023-01-06T20:18:01.686Z,13.50
2023-01-06T20:20:31.866Z,13.50
2023-01-06T20:23:00.624Z,13.50
2023-01-06T20:25:31.919Z,13.50
2023-01-06T20:28:00.153Z,13.50
2023-01-06T20:30:29.043Z,13.50
2023-01-06T20:32:59.397Z,13.50
2023-01-06T20:35:27.833Z,13.50
2023-01-06T20:37:56.241Z,13.50
2023-01-06T20:40:26.189Z,13.50
2023-01-06T20:42:54.990Z,13.50
2023-01-06T20:45:23.915Z,13.50
2023-01-06T20:47:52.285Z,13.50
2023-01-06T20:50:22.826Z,13.50
2023-01-06T20:52:52.448Z,13.50
2023-01-06T20:55:32.597Z,13.50
2023-01-06T20:58:01.800Z,13.50
2023-01-06T21:00:32.595Z,13.60
2023-01-06T21:03:01.928Z,13.50
2023-01-06T21:05:42.244Z,13.50
2023-01-06T21:08:11.649Z,13.50
2023-01-06T21:10:41.805Z,13.50
2023-01-06T21:13:11.663Z,13.50
2023-01-06T21:15:42.283Z,13.60
2023-01-06T21:18:10.975Z,13.50
2023-01-06T21:20:41.683Z,13.50
2023-01-06T21:23:12.024Z,13.50
2023-01-06T21:25:40.617Z,13.60
2023-01-06T21:28:09.909Z,13.50
2023-01-06T21:30:43.023Z,13.50
2023-01-06T21:33:13.472Z,13.60
2023-01-06T21:35:49.891Z,13.60
2023-01-06T21:38:21.953Z,13.60
2023-01-06T21:40:51.385Z,13.60
2023-01-06T21:43:19.840Z,13.60
2023-01-06T21:45:50.900Z,13.60
2023-01-06T21:48:22.494Z,13.60
2023-01-06T21:50:55.038Z,13.60
2023-01-06T21:53:31.001Z,13.60
2023-01-06T21:56:02.823Z,13.60
2023-01-06T21:58:35.124Z,13.60
2023-01-06T22:01:06.244Z,13.60
2023-01-06T22:03:37.375Z,13.60
2023-01-06T22:06:08.172Z,13.60
2023-01-06T22:08:36.694Z,13.60
2023-01-06T22:11:08.006Z,13.60
2023-01-06T22:13:40.521Z,13.60
2023-01-06T22:16:11.314Z,13.60
2023-01-06T22:18:39.660Z,13.60
2023-01-06T22:21:09.924Z,13.60
2023-01-06T22:23:38.924Z,13.60
2023-01-06T22:26:07.552Z,13.60
2023-01-06T22:28:35.976Z,13.60
2023-01-06T22:31:04.864Z,13.60
2023-01-06T22:33:33.520Z,13.60
2023-01-06T22:36:01.762Z,13.60
2023-01-06T22:38:32.437Z,13.60
2023-01-06T22:41:00.982Z,13.60
2023-01-06T22:43:29.270Z,13.90
2023-01-06T22:45:58.010Z,13.60
2023-01-06T22:48:26.936Z,13.60
2023-01-06T22:50:58.539Z,13.60
2023-01-06T22:53:28.142Z,13.70
2023-01-06T22:56:02.493Z,13.60
2023-01-06T22:58:31.364Z,13.50
2023-01-06T23:01:00.408Z,13.60
2023-01-06T23:03:29.097Z,13.60
2023-01-06T23:05:58.353Z,13.50
2023-01-06T23:08:27.591Z,13.50
2023-01-06T23:11:01.505Z,13.60
2023-01-06T23:13:30.264Z,13.60
2023-01-06T23:16:03.192Z,13.60
2023-01-06T23:18:33.114Z,13.60
2023-01-06T23:21:02.964Z,13.60
2023-01-06T23:23:33.381Z,13.50
2023-01-06T23:26:11.060Z,13.50
2023-01-06T23:28:39.919Z,13.50
2023-01-06T23:31:11.745Z,13.50
2023-01-06T23:33:40.539Z,13.50
2023-01-06T23:36:10.423Z,13.50
2023-01-06T23:38:39.036Z,13.50
2023-01-06T23:41:10.657Z,13.50
2023-01-06T23:43:39.949Z,13.50
2023-01-06T23:46:09.922Z,13.50
2023-01-06T23:48:38.441Z,13.50
2023-01-06T23:51:08.311Z,13.50
2023-01-06T23:53:38.057Z,13.50
2023-01-06T23:56:09.559Z,13.50
2023-01-06T23:58:40.146Z,13.50
